createdAt,value
2024-03-10T00:01:53.796Z,6.43
2024-03-10T00:04:21.561Z,6.10
2024-03-10T00:06:49.176Z,6.10
2024-03-10T00:09:17.835Z,6.40
2024-03-10T00:11:45.565Z,6.13
2024-03-10T00:14:13.491Z,6.13
2024-03-10T00:16:42.982Z,5.90
2024-03-10T00:19:10.620Z,5.80
2024-03-10T00:21:38.241Z,6.28
2024-03-10T00:24:08.778Z,5.65
2024-03-10T00:26:36.491Z,6.40
2024-03-10T00:29:04.166Z,6.07
2024-03-10T00:31:32.144Z,6.07
2024-03-10T00:34:01.222Z,6.20
2024-03-10T00:36:29.051Z,5.43
2024-03-10T00:38:56.684Z,6.72
2024-03-10T00:41:24.406Z,5.45
2024-03-10T00:43:52.184Z,5.32
2024-03-10T00:46:20.448Z,5.50
2024-03-10T00:48:49.122Z,6.50
2024-03-10T00:51:18.081Z,5.53
2024-03-10T00:53:45.689Z,5.30
2024-03-10T00:56:14.814Z,5.72
2024-03-10T00:58:42.625Z,5.70
2024-03-10T01:01:10.286Z,5.65
2024-03-10T01:03:38.323Z,6.13
2024-03-10T01:06:06.320Z,5.72
2024-03-10T01:08:35.355Z,5.32
2024-03-10T01:11:03.452Z,5.20
2024-03-10T01:13:31.194Z,5.93
2024-03-10T01:15:58.876Z,6.18
2024-03-10T01:18:26.830Z,4.90
2024-03-10T01:20:54.621Z,5.47
2024-03-10T01:23:22.295Z,5.70
2024-03-10T01:25:51.873Z,6.18
2024-03-10T01:28:19.527Z,5.75
2024-03-10T01:30:47.967Z,5.18
2024-03-10T01:33:15.706Z,5.68
2024-03-10T01:35:44.314Z,5.25
2024-03-10T01:38:11.970Z,5.18
2024-03-10T01:40:39.622Z,5.28
2024-03-10T01:43:09.095Z,5.13
2024-03-10T01:45:36.782Z,5.55
2024-03-10T01:48:05.035Z,5.75
2024-03-10T01:50:32.883Z,5.10
2024-03-10T01:53:00.612Z,5.63
2024-03-10T01:55:29.882Z,5.22
2024-03-10T01:57:57.735Z,5.80
2024-03-10T02:00:27.976Z,4.97
2024-03-10T02:02:55.983Z,5.30
2024-03-10T02:05:25.642Z,5.50
2024-03-10T02:07:54.110Z,5.10
2024-03-10T02:10:22.425Z,5.90
2024-03-10T02:12:50.789Z,5.95
2024-03-10T02:15:22.236Z,5.28
2024-03-10T02:17:51.569Z,5.85
2024-03-10T02:20:22.156Z,5.38
2024-03-10T02:22:50.671Z,5.32
2024-03-10T02:25:23.905Z,5.68
2024-03-10T02:27:53.760Z,5.60
2024-03-10T02:30:30.910Z,5.68
2024-03-10T02:33:16.315Z,5.85
2024-03-10T02:36:01.872Z,5.47
2024-03-10T02:38:47.241Z,5.65
2024-03-10T02:41:32.919Z,6.28
2024-03-10T02:44:19.607Z,5.88
2024-03-10T02:47:05.096Z,5.30
2024-03-10T02:52:00.273Z,5.90
2024-03-10T02:54:28.222Z,5.20
2024-03-10T02:56:55.913Z,5.70
2024-03-10T02:59:25.892Z,5.38
2024-03-10T03:01:53.663Z,6.47
2024-03-10T03:04:22.534Z,5.57
2024-03-10T03:06:50.230Z,5.70
2024-03-10T03:09:21.326Z,5.75
2024-03-10T03:11:49.070Z,5.47
2024-03-10T03:14:16.878Z,5.90
2024-03-10T03:16:47.540Z,5.65
2024-03-10T03:19:15.465Z,5.55
2024-03-10T03:21:44.093Z,5.45
2024-03-10T03:24:14.604Z,6.00
2024-03-10T03:26:43.636Z,5.93
2024-03-10T03:29:12.208Z,6.00
2024-03-10T03:31:40.061Z,6.03
2024-03-10T03:34:09.783Z,5.55
2024-03-10T03:36:37.437Z,5.88
2024-03-10T03:39:07.050Z,5.75
2024-03-10T03:41:34.718Z,5.78
2024-03-10T03:44:05.468Z,5.32
2024-03-10T03:46:33.197Z,6.07
2024-03-10T03:49:00.914Z,6.32
2024-03-10T03:51:30.384Z,5.82
2024-03-10T03:53:58.012Z,5.97
2024-03-10T03:56:25.688Z,6.55
2024-03-10T03:58:53.998Z,5.95
2024-03-10T04:01:21.792Z,5.88
2024-03-10T04:03:49.507Z,6.10
2024-03-10T04:06:17.164Z,6.45
2024-03-10T04:08:46.257Z,6.18
2024-03-10T04:11:14.415Z,6.28
2024-03-10T04:13:42.196Z,5.82
2024-03-10T04:16:09.877Z,6.07
2024-03-10T04:18:37.485Z,5.97
2024-03-10T04:21:05.763Z,6.22
2024-03-10T04:23:33.493Z,6.13
2024-03-10T04:26:03.786Z,6.07
2024-03-10T04:28:31.410Z,6.15
2024-03-10T04:30:59.424Z,5.93
2024-03-10T04:33:27.252Z,6.05
2024-03-10T04:35:54.883Z,5.93
2024-03-10T04:38:22.588Z,5.95
2024-03-10T04:40:50.258Z,6.20
2024-03-10T04:43:23.187Z,6.15
2024-03-10T04:45:52.339Z,5.68
2024-03-10T04:48:20.154Z,6.53
2024-03-10T04:50:47.797Z,5.75
2024-03-10T04:53:15.585Z,5.90
2024-03-10T04:55:45.095Z,6.10
2024-03-10T04:58:12.997Z,5.88
2024-03-10T05:00:41.941Z,5.90
2024-03-10T05:03:11.428Z,6.45
2024-03-10T05:05:39.185Z,6.72
2024-03-10T05:08:09.465Z,6.78
2024-03-10T05:10:37.159Z,6.45
2024-03-10T05:13:05.676Z,6.72
2024-03-10T05:15:33.308Z,6.53
2024-03-10T05:18:02.309Z,6.75
2024-03-10T05:20:30.099Z,6.47
2024-03-10T05:22:57.793Z,6.38
2024-03-10T05:25:25.366Z,6.20
2024-03-10T05:27:53.821Z,6.25
2024-03-10T05:30:21.890Z,7.18
2024-03-10T05:32:50.567Z,6.07
2024-03-10T05:35:19.990Z,6.60
2024-03-10T05:37:47.719Z,6.68
2024-03-10T05:40:15.587Z,7.18
2024-03-10T05:42:43.223Z,7.20
2024-03-10T05:45:12.220Z,7.25
2024-03-10T05:47:39.801Z,8.10
2024-03-10T05:50:08.635Z,8.35
2024-03-10T05:52:37.677Z,7.75
2024-03-10T05:55:08.123Z,6.93
2024-03-10T05:57:35.743Z,6.78
2024-03-10T06:00:07.121Z,7.45
2024-03-10T06:02:39.238Z,8.02
2024-03-10T06:05:07.562Z,7.75
2024-03-10T06:07:35.218Z,7.30
2024-03-10T06:10:06.908Z,7.47
2024-03-10T06:12:34.832Z,7.95
2024-03-10T06:15:02.474Z,7.82
2024-03-10T06:17:34.730Z,6.65
2024-03-10T06:20:20.191Z,6.80
2024-03-10T06:23:05.394Z,6.78
2024-03-10T06:25:35.876Z,7.35
2024-03-10T06:28:04.505Z,7.90
2024-03-10T06:30:32.142Z,7.28
2024-03-10T06:32:59.807Z,7.43
2024-03-10T06:35:27.527Z,7.80
2024-03-10T06:37:55.305Z,7.40
2024-03-10T06:40:23.593Z,7.57
2024-03-10T06:42:52.696Z,7.45
2024-03-10T06:45:20.406Z,8.02
2024-03-10T06:47:48.197Z,6.63
2024-03-10T06:50:16.349Z,7.90
2024-03-10T06:52:46.434Z,7.95
2024-03-10T06:55:15.897Z,7.85
2024-03-10T06:57:43.760Z,7.65
2024-03-10T07:00:14.502Z,8.02
2024-03-10T07:02:47.024Z,7.38
2024-03-10T07:05:16.117Z,8.23
2024-03-10T07:07:44.043Z,7.22
2024-03-10T07:10:11.943Z,7.28
2024-03-10T07:12:39.653Z,7.95
2024-03-10T07:15:11.017Z,7.35
2024-03-10T07:17:40.638Z,7.88
2024-03-10T07:20:11.437Z,8.77
2024-03-10T07:22:39.729Z,8.38
2024-03-10T07:25:09.328Z,7.68
2024-03-10T07:27:37.019Z,8.32
2024-03-10T07:30:05.879Z,7.93
2024-03-10T07:32:33.729Z,7.07
2024-03-10T07:35:03.099Z,7.60
2024-03-10T07:37:30.755Z,8.60
2024-03-10T07:39:58.471Z,8.23
2024-03-10T07:42:26.834Z,8.65
2024-03-10T07:44:54.595Z,7.97
2024-03-10T07:47:22.575Z,9.13
2024-03-10T07:49:50.368Z,8.45
2024-03-10T07:52:19.425Z,9.68
2024-03-10T07:54:47.032Z,8.57
2024-03-10T07:57:14.757Z,8.20
2024-03-10T07:59:42.491Z,9.25
2024-03-10T08:02:10.159Z,8.95
2024-03-10T08:04:38.354Z,8.13
2024-03-10T08:07:08.392Z,9.02
2024-03-10T08:09:37.574Z,9.73
2024-03-10T08:12:06.197Z,8.73
2024-03-10T08:14:35.884Z,9.35
2024-03-10T08:17:03.623Z,8.27
2024-03-10T08:19:31.277Z,9.38
2024-03-10T08:21:58.917Z,7.93
2024-03-10T08:24:27.143Z,9.15
2024-03-10T08:26:56.962Z,8.77
2024-03-10T08:29:24.778Z,8.82
2024-03-10T08:31:52.516Z,8.68
2024-03-10T08:34:20.213Z,8.82
2024-03-10T08:36:47.894Z,8.85
2024-03-10T08:39:17.724Z,8.77
2024-03-10T08:41:45.386Z,9.02
2024-03-10T08:44:14.900Z,8.85
2024-03-10T08:46:42.560Z,8.38
2024-03-10T08:49:10.794Z,8.95
2024-03-10T08:51:38.982Z,8.73
2024-03-10T08:54:09.048Z,8.35
2024-03-10T08:56:37.713Z,8.75
2024-03-10T08:59:05.783Z,9.07
2024-03-10T09:01:35.109Z,9.20
2024-03-10T09:04:03.883Z,9.52
2024-03-10T09:06:31.903Z,9.00
2024-03-10T09:08:59.757Z,9.00
2024-03-10T09:11:27.468Z,9.98
2024-03-10T09:13:56.451Z,9.35
2024-03-10T09:16:24.138Z,9.52
2024-03-10T09:18:53.280Z,9.77
2024-03-10T09:21:21.042Z,9.63
2024-03-10T09:23:51.122Z,9.75
2024-03-10T09:26:18.999Z,10.45
2024-03-10T09:28:46.937Z,9.60
2024-03-10T09:31:15.770Z,9.55
2024-03-10T09:33:44.480Z,9.48
2024-03-10T09:36:13.833Z,9.05
2024-03-10T09:38:45.175Z,9.65
2024-03-10T09:41:13.441Z,9.68
2024-03-10T09:43:42.390Z,9.57
2024-03-10T09:46:12.065Z,9.88
2024-03-10T09:48:43.616Z,9.90
2024-03-10T09:51:16.294Z,9.73
2024-03-10T09:53:44.266Z,9.63
2024-03-10T09:56:13.897Z,10.63
2024-03-10T09:58:46.230Z,9.57
2024-03-10T10:01:19.383Z,9.57
2024-03-10T10:03:51.019Z,10.23
2024-03-10T10:06:22.919Z,9.38
2024-03-10T10:08:55.182Z,9.20
2024-03-10T10:11:24.748Z,9.88
2024-03-10T10:14:08.622Z,9.68
2024-03-10T10:16:45.815Z,10.02
2024-03-10T10:19:18.136Z,10.38
2024-03-10T10:21:48.170Z,10.50
2024-03-10T10:24:17.006Z,10.00
2024-03-10T10:26:44.783Z,10.48
2024-03-10T10:29:12.746Z,9.65
2024-03-10T10:31:40.603Z,9.15
2024-03-10T10:34:09.098Z,9.30
2024-03-10T10:36:38.416Z,9.57
2024-03-10T10:39:10.661Z,9.30
2024-03-10T10:41:39.357Z,9.57
2024-03-10T10:44:07.918Z,10.43
2024-03-10T10:46:36.968Z,9.60
2024-03-10T10:49:06.171Z,9.23
2024-03-10T10:51:35.097Z,9.68
2024-03-10T10:54:08.846Z,9.95
2024-03-10T10:56:37.902Z,10.05
2024-03-10T10:59:05.653Z,9.52
2024-03-10T11:01:33.375Z,10.30
2024-03-10T11:04:00.995Z,9.90
2024-03-10T11:06:32.230Z,9.90
2024-03-10T11:09:00.208Z,9.50
2024-03-10T11:11:46.579Z,9.23
2024-03-10T11:14:17.186Z,9.55
2024-03-10T11:16:45.513Z,10.48
2024-03-10T11:19:22.353Z,11.25
2024-03-10T11:21:52.869Z,8.80
2024-03-10T11:24:23.824Z,10.48
2024-03-10T11:27:12.806Z,9.68
2024-03-10T11:29:43.073Z,9.68
2024-03-10T11:32:34.356Z,10.05
2024-03-10T11:35:08.737Z,5.15
2024-03-10T11:37:38.267Z,8.65
2024-03-10T11:40:08.832Z,8.75
2024-03-10T11:42:38.656Z,9.48
2024-03-10T11:45:10.599Z,9.00
2024-03-10T11:47:39.457Z,10.23
2024-03-10T11:50:09.576Z,9.23
2024-03-10T11:52:38.015Z,10.45
2024-03-10T11:55:13.070Z,10.52
2024-03-10T11:57:43.577Z,9.23
2024-03-10T12:00:16.578Z,10.32
2024-03-10T12:02:46.030Z,10.45
2024-03-10T12:05:17.680Z,10.18
2024-03-10T12:07:49.995Z,10.77
2024-03-10T12:10:19.814Z,9.73
2024-03-10T12:12:53.340Z,9.75
2024-03-10T12:15:23.167Z,10.02
2024-03-10T12:17:52.209Z,9.60
2024-03-10T12:20:22.049Z,9.20
2024-03-10T12:22:51.246Z,9.32
2024-03-10T12:25:20.896Z,10.07
2024-03-10T12:27:51.006Z,9.95
2024-03-10T12:30:21.711Z,9.73
2024-03-10T12:32:53.026Z,10.55
2024-03-10T12:35:23.223Z,8.60
2024-03-10T12:37:52.573Z,9.40
2024-03-10T12:40:20.708Z,8.95
2024-03-10T12:42:49.070Z,9.13
2024-03-10T12:45:18.004Z,7.65
2024-03-10T12:47:47.918Z,8.80
2024-03-10T12:50:17.348Z,9.45
2024-03-10T12:52:45.337Z,8.95
2024-03-10T12:55:13.527Z,8.05
2024-03-10T12:57:41.909Z,7.95
2024-03-10T13:00:27.880Z,8.60
2024-03-10T13:02:59.879Z,8.32
2024-03-10T13:05:30.076Z,7.78
2024-03-10T13:07:59.215Z,8.27
2024-03-10T13:10:27.282Z,8.93
2024-03-10T13:12:55.171Z,8.00
2024-03-10T13:15:23.056Z,8.70
2024-03-10T13:17:51.074Z,7.78
2024-03-10T13:20:22.204Z,9.13
2024-03-10T13:22:50.800Z,8.00
2024-03-10T13:25:18.652Z,8.07
2024-03-10T13:27:46.387Z,7.32
2024-03-10T13:30:15.555Z,8.63
2024-03-10T13:32:43.695Z,8.82
2024-03-10T13:35:14.284Z,8.15
2024-03-10T13:37:43.389Z,8.00
2024-03-10T13:40:13.329Z,7.80
2024-03-10T13:42:43.127Z,7.50
2024-03-10T13:45:16.838Z,7.03
2024-03-10T13:47:50.310Z,7.90
2024-03-10T13:50:20.641Z,7.93
2024-03-10T13:52:49.764Z,7.70
2024-03-10T13:55:17.414Z,7.85
2024-03-10T13:57:46.258Z,6.68
2024-03-10T14:00:15.986Z,7.57
2024-03-10T14:02:44.495Z,6.75
2024-03-10T14:05:13.124Z,7.78
2024-03-10T14:07:40.814Z,8.05
2024-03-10T14:10:11.838Z,7.50
2024-03-10T14:12:40.260Z,7.95
2024-03-10T14:15:11.195Z,7.03
2024-03-10T14:17:40.270Z,6.47
2024-03-10T14:20:14.581Z,6.55
2024-03-10T14:22:43.827Z,6.65
2024-03-10T14:25:13.703Z,6.43
2024-03-10T14:27:45.422Z,6.20
2024-03-10T14:30:14.315Z,6.78
2024-03-10T14:32:42.408Z,6.40
2024-03-10T14:35:11.536Z,6.28
2024-03-10T14:37:40.849Z,6.80
2024-03-10T14:40:16.253Z,6.82
2024-03-10T14:42:46.055Z,6.68
2024-03-10T14:45:13.971Z,6.13
2024-03-10T14:47:42.488Z,6.55
2024-03-10T14:50:11.820Z,6.55
2024-03-10T14:52:39.571Z,6.03
2024-03-10T14:55:09.265Z,5.95
2024-03-10T14:57:37.080Z,6.28
2024-03-10T15:00:07.163Z,6.68
2024-03-10T15:02:34.957Z,6.90
2024-03-10T15:05:05.511Z,10.52
2024-03-10T15:07:33.655Z,8.48
2024-03-10T15:10:01.794Z,7.88
2024-03-10T15:12:30.416Z,6.97
2024-03-10T15:14:58.150Z,7.18
2024-03-10T15:17:27.270Z,6.70
2024-03-10T15:19:55.116Z,6.53
2024-03-10T15:22:22.792Z,6.95
2024-03-10T15:24:50.394Z,5.97
2024-03-10T15:27:18.095Z,9.07
2024-03-10T15:29:48.341Z,7.57
2024-03-10T15:32:19.337Z,8.15
2024-03-10T15:34:48.481Z,6.63
2024-03-10T15:37:16.492Z,6.97
2024-03-10T15:39:45.959Z,6.22
2024-03-10T15:42:14.845Z,6.20
2024-03-10T15:44:42.579Z,6.25
2024-03-10T15:47:11.095Z,6.88
2024-03-10T15:49:39.013Z,6.13
2024-03-10T15:52:13.188Z,7.32
2024-03-10T15:54:41.463Z,7.65
2024-03-10T15:57:10.551Z,8.13
2024-03-10T15:59:38.785Z,6.90
2024-03-10T16:02:08.602Z,6.88
2024-03-10T16:04:36.444Z,6.18
2024-03-10T16:07:04.480Z,6.68
2024-03-10T16:09:33.549Z,6.40
2024-03-10T16:12:01.446Z,6.72
2024-03-10T16:14:29.288Z,7.70
2024-03-10T16:16:57.109Z,7.18
2024-03-10T16:19:25.781Z,7.40
2024-03-10T16:21:55.372Z,7.15
2024-03-10T16:24:23.342Z,7.43
2024-03-10T16:26:52.417Z,7.03
2024-03-10T16:29:20.115Z,6.80
2024-03-10T16:31:50.273Z,7.70
2024-03-10T16:34:18.214Z,7.97
2024-03-10T16:36:45.927Z,6.88
2024-03-10T16:39:14.338Z,8.73
2024-03-10T16:41:42.763Z,8.20
2024-03-10T16:44:11.830Z,8.63
2024-03-10T16:46:39.512Z,8.25
2024-03-10T16:49:08.466Z,7.88
2024-03-10T16:51:36.089Z,8.75
2024-03-10T16:54:05.586Z,8.05
2024-03-10T16:56:33.294Z,9.00
2024-03-10T16:59:01.595Z,9.25
2024-03-10T17:01:30.831Z,8.88
2024-03-10T17:03:59.377Z,8.20
2024-03-10T17:06:27.137Z,9.00
2024-03-10T17:08:54.851Z,9.20
2024-03-10T17:11:23.435Z,9.20
2024-03-10T17:13:51.196Z,8.45
2024-03-10T17:16:20.049Z,8.90
2024-03-10T17:18:49.097Z,8.20
2024-03-10T17:21:16.709Z,8.57
2024-03-10T17:23:44.364Z,7.82
2024-03-10T17:26:12.879Z,8.40
2024-03-10T17:28:40.631Z,7.82
2024-03-10T17:31:08.666Z,8.02
2024-03-10T17:33:36.387Z,8.57
2024-03-10T17:36:06.014Z,7.10
2024-03-10T17:38:35.046Z,8.05
2024-03-10T17:41:02.954Z,7.72
2024-03-10T17:43:30.644Z,7.78
2024-03-10T17:45:58.842Z,7.38
2024-03-10T17:48:26.692Z,7.63
2024-03-10T17:50:54.820Z,7.40
2024-03-10T17:53:24.013Z,7.70
2024-03-10T17:55:51.719Z,7.82
2024-03-10T17:58:19.319Z,9.10
2024-03-10T18:00:48.510Z,9.20
2024-03-10T18:03:18.214Z,8.25
2024-03-10T18:05:46.647Z,9.43
2024-03-10T18:08:14.392Z,9.27
2024-03-10T18:10:47.262Z,8.85
2024-03-10T18:13:15.152Z,10.00
2024-03-10T18:15:43.114Z,8.88
2024-03-10T18:18:11.329Z,9.35
2024-03-10T18:20:39.274Z,10.07
2024-03-10T18:23:09.029Z,9.55
2024-03-10T18:25:36.834Z,10.13
2024-03-10T18:28:06.131Z,10.98
2024-03-10T18:30:34.636Z,9.18
2024-03-10T18:33:04.638Z,11.15
2024-03-10T18:35:32.701Z,12.55
2024-03-10T18:38:00.505Z,12.68
2024-03-10T18:40:30.807Z,12.23
2024-03-10T18:42:59.471Z,10.75
2024-03-10T18:45:29.468Z,10.35
2024-03-10T18:47:59.145Z,10.63
2024-03-10T18:50:27.828Z,11.35
2024-03-10T18:52:55.901Z,12.00
2024-03-10T18:55:24.219Z,11.75
2024-03-10T18:57:52.138Z,14.95
2024-03-10T19:00:19.877Z,12.98
2024-03-10T19:02:49.033Z,11.90
2024-03-10T19:05:17.350Z,15.98
2024-03-10T19:07:46.008Z,13.85
2024-03-10T19:10:14.541Z,12.10
2024-03-10T19:12:44.416Z,12.43
2024-03-10T19:15:12.787Z,13.13
2024-03-10T19:17:41.102Z,14.35
2024-03-10T19:20:18.671Z,14.05
2024-03-10T19:22:51.498Z,14.25
2024-03-10T19:25:19.293Z,16.83
2024-03-10T19:27:46.945Z,16.88
2024-03-10T19:30:15.019Z,16.13
2024-03-10T19:32:42.911Z,15.98
2024-03-10T19:35:12.810Z,16.20
2024-03-10T19:37:40.816Z,17.05
2024-03-10T19:40:14.517Z,16.52
2024-03-10T19:42:42.754Z,16.60
2024-03-10T19:45:11.194Z,17.17
2024-03-10T19:47:42.097Z,18.48
2024-03-10T19:50:13.748Z,17.40
2024-03-10T19:52:42.427Z,19.15
2024-03-10T19:55:11.259Z,17.55
2024-03-10T19:57:39.629Z,18.67
2024-03-10T20:00:09.418Z,18.23
2024-03-10T20:02:42.307Z,16.92
2024-03-10T20:05:10.976Z,17.30
2024-03-10T20:07:40.321Z,16.65
2024-03-10T20:10:13.588Z,17.25
2024-03-10T20:12:41.440Z,17.50
2024-03-10T20:15:10.873Z,17.95
2024-03-10T20:17:40.028Z,17.15
2024-03-10T20:20:09.591Z,17.80
2024-03-10T20:22:38.181Z,17.77
2024-03-10T20:25:07.783Z,17.48
2024-03-10T20:27:37.353Z,18.45
2024-03-10T20:30:05.505Z,18.42
2024-03-10T20:32:33.511Z,18.63
2024-03-10T20:35:01.947Z,18.05
2024-03-10T20:37:30.070Z,18.20
2024-03-10T20:39:57.716Z,17.90
2024-03-10T20:42:26.739Z,17.95
2024-03-10T20:44:54.469Z,18.27
2024-03-10T20:47:22.163Z,20.10
2024-03-10T20:49:49.865Z,20.70
2024-03-10T20:52:18.311Z,20.15
2024-03-10T20:54:46.019Z,19.85
2024-03-10T20:57:13.644Z,20.60
2024-03-10T20:59:42.766Z,20.30
2024-03-10T21:02:10.500Z,20.10
2024-03-10T21:04:38.190Z,19.80
2024-03-10T21:07:06.273Z,20.42
2024-03-10T21:09:34.021Z,20.50
2024-03-10T21:12:02.430Z,20.70
2024-03-10T21:14:30.155Z,20.05
2024-03-10T21:17:00.944Z,20.45
2024-03-10T21:19:30.578Z,20.17
2024-03-10T21:21:58.550Z,18.75
2024-03-10T21:24:26.384Z,21.38
2024-03-10T21:26:54.093Z,19.67
2024-03-10T21:29:23.006Z,21.05
2024-03-10T21:31:50.726Z,20.73
2024-03-10T21:34:22.075Z,21.17
2024-03-10T21:36:51.441Z,19.80
2024-03-10T21:39:20.799Z,20.15
2024-03-10T21:41:48.886Z,19.98
2024-03-10T21:44:16.761Z,21.45
2024-03-10T21:46:44.884Z,20.45
2024-03-10T21:49:12.567Z,21.40
2024-03-10T21:51:41.569Z,21.17
2024-03-10T21:54:09.192Z,20.10
2024-03-10T21:56:38.446Z,20.95
2024-03-10T21:59:06.221Z,19.80
2024-03-10T22:01:35.676Z,19.55
2024-03-10T22:04:05.835Z,19.95
2024-03-10T22:06:34.340Z,18.05
2024-03-10T22:09:05.789Z,17.02
2024-03-10T22:11:33.991Z,15.65
2024-03-10T22:14:04.121Z,14.85
2024-03-10T22:16:32.027Z,14.23
2024-03-10T22:18:59.917Z,12.90
2024-03-10T22:21:27.759Z,13.73
2024-03-10T22:23:55.534Z,13.50
2024-03-10T22:26:24.610Z,13.45
2024-03-10T22:28:52.892Z,13.65
2024-03-10T22:31:20.994Z,13.02
2024-03-10T22:33:48.624Z,13.57
2024-03-10T22:36:16.275Z,13.05
2024-03-10T22:38:44.689Z,13.02
2024-03-10T22:41:14.170Z,12.95
2024-03-10T22:43:44.061Z,13.93
2024-03-10T22:46:11.720Z,14.43
2024-03-10T22:48:39.932Z,13.75
2024-03-10T22:51:07.663Z,14.18
2024-03-10T22:53:35.325Z,13.93
2024-03-10T22:56:03.843Z,13.73
2024-03-10T22:58:32.278Z,12.95
2024-03-10T23:01:01.236Z,14.77
2024-03-10T23:03:30.028Z,13.27
2024-03-10T23:05:57.764Z,14.80
2024-03-10T23:08:25.361Z,14.48
2024-03-10T23:10:53.080Z,13.50
2024-03-10T23:13:21.866Z,13.65
2024-03-10T23:15:50.718Z,14.10
2024-03-10T23:18:24.658Z,13.90
2024-03-10T23:20:53.736Z,14.98
2024-03-10T23:23:21.715Z,15.18
2024-03-10T23:25:49.847Z,14.57
2024-03-10T23:28:17.665Z,15.00
2024-03-10T23:30:45.307Z,14.52
2024-03-10T23:33:13.005Z,14.60
2024-03-10T23:35:42.840Z,14.73
2024-03-10T23:38:10.614Z,15.70
2024-03-10T23:40:38.800Z,15.48
2024-03-10T23:43:06.812Z,13.05
2024-03-10T23:45:35.229Z,14.98
2024-03-10T23:48:03.401Z,13.70
2024-03-10T23:50:31.408Z,12.43
2024-03-10T23:53:02.195Z,12.95
2024-03-10T23:55:38.297Z,12.82
2024-03-10T23:58:07.892Z,13.23
